sensor_id;sensor_type;location;lat;lon;timestamp;pressure;altitude;pressure_sealevel;temperature;humidity
68329;BME280;55182;56.864;60.554;2022-10-20T00:00:20;97314.44;;;-0.55;100.00
68329;BME280;55182;56.864;60.554;2022-10-20T00:02:46;97316.22;;;-0.52;100.00
68329;BME280;55182;56.864;60.554;2022-10-20T00:05:12;97318.91;;;-0.49;100.00
68329;BME280;55182;56.864;60.554;2022-10-20T00:07:37;97317.97;;;-0.51;100.00
68329;BME280;55182;56.864;60.554;2022-10-20T00:10:03;97317.22;;;-0.47;100.00
68329;BME280;55182;56.864;60.554;2022-10-20T00:12:28;97316.41;;;-0.46;100.00
68329;BME280;55182;56.864;60.554;2022-10-20T00:14:54;97320.69;;;-0.47;100.00
68329;BME280;55182;56.864;60.554;2022-10-20T00:17:19;97318.06;;;-0.48;100.00
68329;BME280;55182;56.864;60.554;2022-10-20T00:19:47;97321.53;;;-0.46;100.00
68329;BME280;55182;56.864;60.554;2022-10-20T00:22:13;97324.22;;;-0.43;100.00
68329;BME280;55182;56.864;60.554;2022-10-20T00:24:38;97324.41;;;-0.37;100.00
68329;BME280;55182;56.864;60.554;2022-10-20T00:27:04;97322.75;;;-0.35;100.00
68329;BME280;55182;56.864;60.554;2022-10-20T00:29:29;97333.06;;;-0.35;100.00
68329;BME280;55182;56.864;60.554;2022-10-20T00:31:55;97332.34;;;-0.31;100.00
68329;BME280;55182;56.864;60.554;2022-10-20T00:34:20;97337.28;;;-0.37;100.00
68329;BME280;55182;56.864;60.554;2022-10-20T00:36:45;97334.38;;;-0.48;100.00
68329;BME280;55182;56.864;60.554;2022-10-20T00:39:11;97340.22;;;-0.54;100.00
68329;BME280;55182;56.864;60.554;2022-10-20T00:41:36;97343.69;;;-0.51;100.00
68329;BME280;55182;56.864;60.554;2022-10-20T00:44:44;97345.56;;;-0.47;100.00
68329;BME280;55182;56.864;60.554;2022-10-20T00:46:47;97343.81;;;-0.48;100.00
68329;BME280;55182;56.864;60.554;2022-10-20T00:49:15;97348.97;;;-0.48;100.00
68329;BME280;55182;56.864;60.554;2022-10-20T00:51:42;97347.19;;;-0.51;100.00
68329;BME280;55182;56.864;60.554;2022-10-20T00:54:08;97354.94;;;-0.49;100.00
68329;BME280;55182;56.864;60.554;2022-10-20T00:56:34;97354.13;;;-0.48;100.00
68329;BME280;55182;56.864;60.554;2022-10-20T00:59:01;97364.38;;;-0.50;100.00
68329;BME280;55182;56.864;60.554;2022-10-20T01:01:27;97365.28;;;-0.48;100.00
68329;BME280;55182;56.864;60.554;2022-10-20T01:03:52;97366.16;;;-0.47;100.00
68329;BME280;55182;56.864;60.554;2022-10-20T01:06:18;97367.72;;;-0.52;100.00
68329;BME280;55182;56.864;60.554;2022-10-20T01:08:44;97362.47;;;-0.56;100.00
68329;BME280;55182;56.864;60.554;2022-10-20T01:14:21;97373.69;;;-0.54;100.00
68329;BME280;55182;56.864;60.554;2022-10-20T01:19:09;97368.31;;;-0.61;100.00
68329;BME280;55182;56.864;60.554;2022-10-20T01:31:57;97373.28;;;-0.66;100.00
68329;BME280;55182;56.864;60.554;2022-10-20T01:34:32;97374.22;;;-0.64;100.00
68329;BME280;55182;56.864;60.554;2022-10-20T01:37:07;97369.06;;;-0.64;100.00
68329;BME280;55182;56.864;60.554;2022-10-20T01:39:43;97365.56;;;-0.66;100.00
68329;BME280;55182;56.864;60.554;2022-10-20T01:42:12;97378.41;;;-0.67;100.00
68329;BME280;55182;56.864;60.554;2022-10-20T01:44:40;97383.34;;;-0.73;100.00
68329;BME280;55182;56.864;60.554;2022-10-20T01:47:07;97378.13;;;-0.75;100.00
68329;BME280;55182;56.864;60.554;2022-10-20T01:49:33;97392.81;;;-0.72;100.00
68329;BME280;55182;56.864;60.554;2022-10-20T01:51:59;97390.03;;;-0.78;100.00
68329;BME280;55182;56.864;60.554;2022-10-20T01:54:26;97394.09;;;-0.85;100.00
68329;BME280;55182;56.864;60.554;2022-10-20T02:04:10;97400.81;;;-0.90;100.00
68329;BME280;55182;56.864;60.554;2022-10-20T02:09:35;97393.13;;;-0.89;100.00
68329;BME280;55182;56.864;60.554;2022-10-20T02:12:12;97407.56;;;-0.92;100.00
68329;BME280;55182;56.864;60.554;2022-10-20T02:14:40;97405.94;;;-0.90;100.00
68329;BME280;55182;56.864;60.554;2022-10-20T02:17:07;97407.56;;;-0.92;100.00
68329;BME280;55182;56.864;60.554;2022-10-20T02:19:36;97399.56;;;-1.01;100.00
68329;BME280;55182;56.864;60.554;2022-10-20T02:22:03;97408.69;;;-1.10;100.00
68329;BME280;55182;56.864;60.554;2022-10-20T02:24:31;97409.53;;;-1.11;100.00
68329;BME280;55182;56.864;60.554;2022-10-20T02:26:59;97405.28;;;-1.09;100.00
68329;BME280;55182;56.864;60.554;2022-10-20T02:29:27;97404.63;;;-1.03;100.00
68329;BME280;55182;56.864;60.554;2022-10-20T02:31:54;97400.47;;;-0.99;100.00
68329;BME280;55182;56.864;60.554;2022-10-20T02:34:20;97398.78;;;-0.99;100.00
68329;BME280;55182;56.864;60.554;2022-10-20T02:36:49;97392.72;;;-1.01;100.00
68329;BME280;55182;56.864;60.554;2022-10-20T02:39:14;97397.75;;;-1.04;100.00
68329;BME280;55182;56.864;60.554;2022-10-20T02:41:40;97395.28;;;-1.01;100.00
68329;BME280;55182;56.864;60.554;2022-10-20T02:44:05;97397.78;;;-1.02;100.00
68329;BME280;55182;56.864;60.554;2022-10-20T02:46:30;97400.47;;;-0.99;100.00
68329;BME280;55182;56.864;60.554;2022-10-20T02:48:56;97404.09;;;-0.94;100.00
68329;BME280;55182;56.864;60.554;2022-10-20T02:51:21;97404.16;;;-0.91;100.00
68329;BME280;55182;56.864;60.554;2022-10-20T02:53:46;97408.53;;;-0.90;100.00
68329;BME280;55182;56.864;60.554;2022-10-20T02:56:12;97408.53;;;-0.90;100.00
68329;BME280;55182;56.864;60.554;2022-10-20T02:58:37;97417.81;;;-0.94;100.00
68329;BME280;55182;56.864;60.554;2022-10-20T03:01:03;97419.53;;;-0.94;100.00
68329;BME280;55182;56.864;60.554;2022-10-20T03:03:28;97415.22;;;-0.95;100.00
68329;BME280;55182;56.864;60.554;2022-10-20T03:05:54;97412.72;;;-0.92;100.00
68329;BME280;55182;56.864;60.554;2022-10-20T03:08:20;97412.63;;;-0.95;100.00
68329;BME280;55182;56.864;60.554;2022-10-20T03:10:45;97419.41;;;-0.97;100.00
68329;BME280;55182;56.864;60.554;2022-10-20T03:13:11;97424.53;;;-0.97;100.00
68329;BME280;55182;56.864;60.554;2022-10-20T03:15:36;97424.34;;;-1.03;100.00
68329;BME280;55182;56.864;60.554;2022-10-20T03:18:02;97431.22;;;-1.02;100.00
68329;BME280;55182;56.864;60.554;2022-10-20T03:20:28;97428.56;;;-1.05;100.00
68329;BME280;55182;56.864;60.554;2022-10-20T03:22:53;97431.34;;;-0.99;100.00
68329;BME280;55182;56.864;60.554;2022-10-20T03:25:19;97428.81;;;-0.98;100.00
68329;BME280;55182;56.864;60.554;2022-10-20T03:27:44;97435.84;;;-0.94;100.00
68329;BME280;55182;56.864;60.554;2022-10-20T03:30:10;97444.53;;;-0.90;100.00
68329;BME280;55182;56.864;60.554;2022-10-20T03:32:35;97445.56;;;-0.85;100.00
68329;BME280;55182;56.864;60.554;2022-10-20T03:35:01;97445.84;;;-0.77;100.00
68329;BME280;55182;56.864;60.554;2022-10-20T03:37:26;97444.13;;;-0.77;100.00
68329;BME280;55182;56.864;60.554;2022-10-20T03:39:52;97445.78;;;-0.79;100.00
68329;BME280;55182;56.864;60.554;2022-10-20T03:42:17;97445.88;;;-0.76;100.00
68329;BME280;55182;56.864;60.554;2022-10-20T03:44:43;97447.75;;;-0.72;100.00
68329;BME280;55182;56.864;60.554;2022-10-20T03:47:08;97448.69;;;-0.68;100.00
68329;BME280;55182;56.864;60.554;2022-10-20T03:49:34;97454.00;;;-0.64;100.00
68329;BME280;55182;56.864;60.554;2022-10-20T03:51:59;97447.22;;;-0.62;100.00
68329;BME280;55182;56.864;60.554;2022-10-20T03:54:24;97453.13;;;-0.64;100.00
68329;BME280;55182;56.864;60.554;2022-10-20T03:56:50;97466.78;;;-0.67;100.00
68329;BME280;55182;56.864;60.554;2022-10-20T03:59:15;97465.03;;;-0.68;100.00
68329;BME280;55182;56.864;60.554;2022-10-20T04:01:44;97462.41;;;-0.69;100.00
68329;BME280;55182;56.864;60.554;2022-10-20T04:04:10;97461.66;;;-0.67;100.00
68329;BME280;55182;56.864;60.554;2022-10-20T04:06:35;97465.13;;;-0.65;100.00
68329;BME280;55182;56.864;60.554;2022-10-20T04:09:01;97465.19;;;-0.63;100.00
68329;BME280;55182;56.864;60.554;2022-10-20T04:11:26;97464.47;;;-0.59;100.00
68329;BME280;55182;56.864;60.554;2022-10-20T04:13:52;97473.22;;;-0.54;100.00
68329;BME280;55182;56.864;60.554;2022-10-20T04:16:17;97468.94;;;-0.54;100.00
68329;BME280;55182;56.864;60.554;2022-10-20T04:18:43;97476.00;;;-0.48;100.00
68329;BME280;55182;56.864;60.554;2022-10-20T04:21:08;97470.88;;;-0.46;100.00
68329;BME280;55182;56.864;60.554;2022-10-20T04:23:33;97480.72;;;-0.35;100.00
68329;BME280;55182;56.864;60.554;2022-10-20T04:25:59;97478.31;;;-0.30;100.00
68329;BME280;55182;56.864;60.554;2022-10-20T04:28:24;97486.22;;;-0.24;100.00
68329;BME280;55182;56.864;60.554;2022-10-20T04:30:50;97501.00;;;-0.18;100.00
68329;BME280;55182;56.864;60.554;2022-10-20T04:33:15;97492.53;;;-0.16;100.00
68329;BME280;55182;56.864;60.554;2022-10-20T04:35:41;97487.44;;;-0.13;100.00
68329;BME280;55182;56.864;60.554;2022-10-20T04:38:07;97491.88;;;-0.09;100.00
68329;BME280;55182;56.864;60.554;2022-10-20T04:40:32;97493.81;;;-0.02;100.00
68329;BME280;55182;56.864;60.554;2022-10-20T04:42:58;97499.13;;;0.03;100.00
68329;BME280;55182;56.864;60.554;2022-10-20T04:45:24;97500.13;;;0.07;100.00
68329;BME280;55182;56.864;60.554;2022-10-20T04:47:49;97502.78;;;0.10;100.00
68329;BME280;55182;56.864;60.554;2022-10-20T04:50:14;97498.59;;;0.13;100.00
68329;BME280;55182;56.864;60.554;2022-10-20T04:52:40;97509.06;;;0.18;100.00
68329;BME280;55182;56.864;60.554;2022-10-20T04:55:05;97499.72;;;0.21;100.00
68329;BME280;55182;56.864;60.554;2022-10-20T04:57:31;97495.41;;;0.22;100.00
68329;BME280;55182;56.864;60.554;2022-10-20T04:59:57;97491.09;;;0.21;100.00
68329;BME280;55182;56.864;60.554;2022-10-20T05:02:23;97493.88;;;0.27;100.00
68329;BME280;55182;56.864;60.554;2022-10-20T05:04:48;97490.66;;;0.34;100.00
68329;BME280;55182;56.864;60.554;2022-10-20T05:07:13;97498.59;;;0.40;100.00
68329;BME280;55182;56.864;60.554;2022-10-20T05:09:39;97493.81;;;0.52;100.00
68329;BME280;55182;56.864;60.554;2022-10-20T05:12:04;97501.84;;;0.63;100.00
68329;BME280;55182;56.864;60.554;2022-10-20T05:14:29;97505.50;;;0.70;100.00
68329;BME280;55182;56.864;60.554;2022-10-20T05:16:55;97500.56;;;0.79;100.00
68329;BME280;55182;56.864;60.554;2022-10-20T05:19:20;97507.59;;;0.83;100.00
68329;BME280;55182;56.864;60.554;2022-10-20T05:21:46;97511.13;;;0.87;100.00
68329;BME280;55182;56.864;60.554;2022-10-20T05:24:12;97510.50;;;0.95;99.85
68329;BME280;55182;56.864;60.554;2022-10-20T05:26:38;97507.16;;;0.98;99.43
68329;BME280;55182;56.864;60.554;2022-10-20T05:29:05;97519.38;;;1.03;99.70
68329;BME280;55182;56.864;60.554;2022-10-20T05:31:34;97514.38;;;1.10;98.45
68329;BME280;55182;56.864;60.554;2022-10-20T05:34:00;97518.13;;;1.21;96.63
68329;BME280;55182;56.864;60.554;2022-10-20T05:36:25;97519.97;;;1.25;96.00
68329;BME280;55182;56.864;60.554;2022-10-20T05:38:51;97506.22;;;1.26;95.22
68329;BME280;55182;56.864;60.554;2022-10-20T05:41:18;97514.00;;;1.27;94.88
68329;BME280;55182;56.864;60.554;2022-10-20T05:43:47;97518.50;;;1.35;94.61
68329;BME280;55182;56.864;60.554;2022-10-20T05:46:13;97520.69;;;1.52;93.17
68329;BME280;55182;56.864;60.554;2022-10-20T05:48:39;97517.63;;;1.66;93.05
68329;BME280;55182;56.864;60.554;2022-10-20T05:53:33;97523.44;;;1.92;91.91
68329;BME280;55182;56.864;60.554;2022-10-20T05:56:05;97515.06;;;2.02;91.17
68329;BME280;55182;56.864;60.554;2022-10-20T05:58:30;97516.22;;;2.15;90.73
68329;BME280;55182;56.864;60.554;2022-10-20T06:01:10;97520.78;;;2.23;91.01
68329;BME280;55182;56.864;60.554;2022-10-20T06:03:36;97515.78;;;2.32;90.25
68329;BME280;55182;56.864;60.554;2022-10-20T06:06:01;97522.81;;;2.38;89.53
68329;BME280;55182;56.864;60.554;2022-10-20T06:08:28;97521.13;;;2.38;88.47
68329;BME280;55182;56.864;60.554;2022-10-20T06:10:53;97549.53;;;2.37;87.12
68329;BME280;55182;56.864;60.554;2022-10-20T06:13:19;97532.16;;;2.31;86.13
68329;BME280;55182;56.864;60.554;2022-10-20T06:15:44;97515.66;;;2.26;86.36
68329;BME280;55182;56.864;60.554;2022-10-20T06:18:10;97528.66;;;2.28;87.67
68329;BME280;55182;56.864;60.554;2022-10-20T06:20:35;97533.81;;;2.28;86.95
68329;BME280;55182;56.864;60.554;2022-10-20T06:23:01;97536.28;;;2.23;87.30
68329;BME280;55182;56.864;60.554;2022-10-20T06:25:26;97528.53;;;2.23;87.41
68329;BME280;55182;56.864;60.554;2022-10-20T06:27:52;97549.22;;;2.23;87.77
68329;BME280;55182;56.864;60.554;2022-10-20T06:30:17;97550.84;;;2.20;89.10
68329;BME280;55182;56.864;60.554;2022-10-20T06:32:43;97543.91;;;2.17;89.93
68329;BME280;55182;56.864;60.554;2022-10-20T06:35:08;97535.28;;;2.17;90.07
68329;BME280;55182;56.864;60.554;2022-10-20T06:37:33;97537.84;;;2.17;90.90
68329;BME280;55182;56.864;60.554;2022-10-20T06:39:59;97554.28;;;2.19;90.12
68329;BME280;55182;56.864;60.554;2022-10-20T06:42:24;97531.03;;;2.20;87.27
68329;BME280;55182;56.864;60.554;2022-10-20T06:44:52;97536.31;;;2.25;87.27
68329;BME280;55182;56.864;60.554;2022-10-20T06:47:17;97536.47;;;2.31;86.51
68329;BME280;55182;56.864;60.554;2022-10-20T06:49:42;97552.31;;;2.45;86.17
68329;BME280;55182;56.864;60.554;2022-10-20T06:52:08;97534.53;;;2.60;84.90
68329;BME280;55182;56.864;60.554;2022-10-20T06:54:34;97536.44;;;2.67;84.51
68329;BME280;55182;56.864;60.554;2022-10-20T06:56:59;97535.72;;;2.73;83.73
68329;BME280;55182;56.864;60.554;2022-10-20T06:59:25;97535.75;;;2.76;83.66
68329;BME280;55182;56.864;60.554;2022-10-20T07:01:50;97537.47;;;2.74;84.21
68329;BME280;55182;56.864;60.554;2022-10-20T07:04:16;97541.84;;;2.78;83.39
68329;BME280;55182;56.864;60.554;2022-10-20T07:06:42;97545.34;;;2.78;84.07
68329;BME280;55182;56.864;60.554;2022-10-20T07:09:10;97545.28;;;2.77;84.72
68329;BME280;55182;56.864;60.554;2022-10-20T07:11:36;97551.19;;;2.71;85.70
68329;BME280;55182;56.864;60.554;2022-10-20T07:14:02;97549.16;;;2.58;86.10
68329;BME280;55182;56.864;60.554;2022-10-20T07:16:28;97556.06;;;2.57;87.15
68329;BME280;55182;56.864;60.554;2022-10-20T07:18:54;97553.47;;;2.57;87.23
68329;BME280;55182;56.864;60.554;2022-10-20T07:21:21;97544.81;;;2.55;87.31
68329;BME280;55182;56.864;60.554;2022-10-20T07:23:47;97560.16;;;2.49;88.37
68329;BME280;55182;56.864;60.554;2022-10-20T07:26:14;97560.97;;;2.45;89.24
68329;BME280;55182;56.864;60.554;2022-10-20T07:28:41;97555.66;;;2.41;89.41
68329;BME280;55182;56.864;60.554;2022-10-20T07:31:09;97555.56;;;2.36;89.64
68329;BME280;55182;56.864;60.554;2022-10-20T07:33:34;97558.88;;;2.30;90.10
68329;BME280;55182;56.864;60.554;2022-10-20T07:36:00;97563.16;;;2.30;89.43
68329;BME280;55182;56.864;60.554;2022-10-20T07:38:25;97562.19;;;2.25;88.02
68329;BME280;55182;56.864;60.554;2022-10-20T07:40:51;97552.53;;;2.18;88.02
68329;BME280;55182;56.864;60.554;2022-10-20T07:43:16;97571.53;;;2.20;88.49
68329;BME280;55182;56.864;60.554;2022-10-20T07:45:41;97578.38;;;2.18;89.00
68329;BME280;55182;56.864;60.554;2022-10-20T07:48:07;97577.56;;;2.20;88.54
68329;BME280;55182;56.864;60.554;2022-10-20T07:50:32;97567.28;;;2.22;88.76
68329;BME280;55182;56.864;60.554;2022-10-20T07:52:58;97576.72;;;2.21;87.78
68329;BME280;55182;56.864;60.554;2022-10-20T07:55:23;97571.53;;;2.20;88.08
68329;BME280;55182;56.864;60.554;2022-10-20T07:57:48;97581.81;;;2.17;88.76
68329;BME280;55182;56.864;60.554;2022-10-20T08:00:14;97581.59;;;2.09;89.41
68329;BME280;55182;56.864;60.554;2022-10-20T08:02:40;97569.34;;;2.00;91.24
68329;BME280;55182;56.864;60.554;2022-10-20T08:05:06;97581.06;;;1.88;91.82
68329;BME280;55182;56.864;60.554;2022-10-20T08:07:31;97590.19;;;1.75;92.24
68329;BME280;55182;56.864;60.554;2022-10-20T08:09:57;97582.25;;;1.67;92.86
68329;BME280;55182;56.864;60.554;2022-10-20T08:12:22;97594.19;;;1.64;92.73
68329;BME280;55182;56.864;60.554;2022-10-20T08:14:47;97601.94;;;1.64;92.08
68329;BME280;55182;56.864;60.554;2022-10-20T08:17:13;97594.19;;;1.64;92.26
68329;BME280;55182;56.864;60.554;2022-10-20T08:19:38;97597.75;;;1.67;91.91
68329;BME280;55182;56.864;60.554;2022-10-20T08:22:04;97598.72;;;1.71;92.10
68329;BME280;55182;56.864;60.554;2022-10-20T08:24:29;97601.47;;;1.77;92.04
68329;BME280;55182;56.864;60.554;2022-10-20T08:26:54;97610.22;;;1.82;90.87
68329;BME280;55182;56.864;60.554;2022-10-20T08:29:20;97608.53;;;1.84;90.14
68329;BME280;55182;56.864;60.554;2022-10-20T08:31:45;97606.97;;;1.89;90.21
68329;BME280;55182;56.864;60.554;2022-10-20T08:34:11;97601.94;;;1.95;88.14
68329;BME280;55182;56.864;60.554;2022-10-20T08:36:36;97614.13;;;1.99;87.75
68329;BME280;55182;56.864;60.554;2022-10-20T08:39:02;97611.63;;;2.04;85.77
68329;BME280;55182;56.864;60.554;2022-10-20T08:41:29;97610.91;;;2.09;85.53
68329;BME280;55182;56.864;60.554;2022-10-20T08:43:55;97621.38;;;2.14;84.54
68329;BME280;55182;56.864;60.554;2022-10-20T08:46:23;97606.81;;;2.16;84.85
68329;BME280;55182;56.864;60.554;2022-10-20T08:48:51;97618.91;;;2.19;85.12
68329;BME280;55182;56.864;60.554;2022-10-20T08:51:18;97604.41;;;2.24;85.02
68329;BME280;55182;56.864;60.554;2022-10-20T08:53:44;97615.72;;;2.27;85.42
68329;BME280;55182;56.864;60.554;2022-10-20T08:56:11;97608.84;;;2.29;85.26
68329;BME280;55182;56.864;60.554;2022-10-20T08:58:40;97604.59;;;2.31;85.13
68329;BME280;55182;56.864;60.554;2022-10-20T09:01:11;97603.75;;;2.32;84.90
68329;BME280;55182;56.864;60.554;2022-10-20T09:03:39;97604.69;;;2.34;85.25
68329;BME280;55182;56.864;60.554;2022-10-20T09:06:06;97605.72;;;2.43;84.87
68329;BME280;55182;56.864;60.554;2022-10-20T09:08:32;97602.41;;;2.48;84.31
68329;BME280;55182;56.864;60.554;2022-10-20T09:10:59;97604.25;;;2.52;84.43
68329;BME280;55182;56.864;60.554;2022-10-20T09:13:26;97606.81;;;2.52;84.29
68329;BME280;55182;56.864;60.554;2022-10-20T09:15:53;97598.44;;;2.62;84.40
68329;BME280;55182;56.864;60.554;2022-10-20T09:18:20;97603.78;;;2.69;84.94
68329;BME280;55182;56.864;60.554;2022-10-20T09:20:55;97594.94;;;2.60;84.91
68329;BME280;55182;56.864;60.554;2022-10-20T09:23:41;97605.34;;;2.62;84.61
68329;BME280;55182;56.864;60.554;2022-10-20T09:26:12;97606.00;;;2.55;83.43
68329;BME280;55182;56.864;60.554;2022-10-20T09:28:38;97613.88;;;2.58;82.62
68329;BME280;55182;56.864;60.554;2022-10-20T09:31:03;97605.28;;;2.60;83.17
68329;BME280;55182;56.864;60.554;2022-10-20T09:33:44;97602.03;;;2.68;82.61
68329;BME280;55182;56.864;60.554;2022-10-20T09:36:13;97613.38;;;2.74;82.76
68329;BME280;55182;56.864;60.554;2022-10-20T09:38:41;97615.84;;;2.68;81.64
68329;BME280;55182;56.864;60.554;2022-10-20T09:43:33;97613.75;;;2.53;81.91
68329;BME280;55182;56.864;60.554;2022-10-20T09:45:59;97606.06;;;2.56;81.29
68329;BME280;55182;56.864;60.554;2022-10-20T09:48:29;97610.25;;;2.51;81.73
68329;BME280;55182;56.864;60.554;2022-10-20T09:50:56;97616.13;;;2.44;82.37
68329;BME280;55182;56.864;60.554;2022-10-20T09:53:29;97616.94;;;2.43;82.40
68329;BME280;55182;56.864;60.554;2022-10-20T09:55:56;97605.78;;;2.44;82.11
68329;BME280;55182;56.864;60.554;2022-10-20T10:00:54;97613.53;;;2.44;82.13
68329;BME280;55182;56.864;60.554;2022-10-20T10:03:20;97606.72;;;2.48;82.81
68329;BME280;55182;56.864;60.554;2022-10-20T10:08:15;97600.09;;;2.59;82.53
68329;BME280;55182;56.864;60.554;2022-10-20T10:10:41;97605.44;;;2.66;82.87
68329;BME280;55182;56.864;60.554;2022-10-20T10:13:17;97608.31;;;2.79;82.09
68329;BME280;55182;56.864;60.554;2022-10-20T10:15:44;97611.25;;;2.94;80.99
68329;BME280;55182;56.864;60.554;2022-10-20T10:18:11;97608.09;;;3.07;80.72
68329;BME280;55182;56.864;60.554;2022-10-20T10:20:39;97616.13;;;3.18;78.87
68329;BME280;55182;56.864;60.554;2022-10-20T10:25:40;97614.53;;;3.26;78.59
68329;BME280;55182;56.864;60.554;2022-10-20T10:28:18;97610.25;;;3.27;77.86
68329;BME280;55182;56.864;60.554;2022-10-20T10:30:44;97620.38;;;3.17;78.53
68329;BME280;55182;56.864;60.554;2022-10-20T10:33:21;97617.63;;;3.08;79.24
68329;BME280;55182;56.864;60.554;2022-10-20T10:35:49;97626.16;;;3.04;78.25
68329;BME280;55182;56.864;60.554;2022-10-20T10:38:14;97627.75;;;2.99;78.30
68329;BME280;55182;56.864;60.554;2022-10-20T10:48:17;97629.59;;;3.03;77.82
68329;BME280;55182;56.864;60.554;2022-10-20T11:06:22;97641.44;;;2.93;79.13
68329;BME280;55182;56.864;60.554;2022-10-20T11:08:58;97631.16;;;2.97;79.44
68329;BME280;55182;56.864;60.554;2022-10-20T11:16:23;97644.38;;;3.07;79.36
68329;BME280;55182;56.864;60.554;2022-10-20T11:26:14;97653.91;;;3.10;79.64
68329;BME280;55182;56.864;60.554;2022-10-20T11:28:47;97656.19;;;2.96;79.89
68329;BME280;55182;56.864;60.554;2022-10-20T11:31:30;97654.19;;;2.84;80.98
68329;BME280;55182;56.864;60.554;2022-10-20T11:34:45;97667.88;;;2.79;81.52
68329;BME280;55182;56.864;60.554;2022-10-20T11:36:45;97662.75;;;2.82;81.43
68329;BME280;55182;56.864;60.554;2022-10-20T11:39:17;97666.31;;;2.87;81.90
68329;BME280;55182;56.864;60.554;2022-10-20T11:41:47;97677.50;;;2.84;82.13
68329;BME280;55182;56.864;60.554;2022-10-20T11:49:04;97679.28;;;2.88;82.55
68329;BME280;55182;56.864;60.554;2022-10-20T11:59:27;97690.56;;;2.90;83.33
68329;BME280;55182;56.864;60.554;2022-10-20T12:04:38;97688.03;;;2.92;83.10
68329;BME280;55182;56.864;60.554;2022-10-20T12:14:53;97695.50;;;2.80;83.55
68329;BME280;55182;56.864;60.554;2022-10-20T12:17:22;97701.44;;;2.77;84.31
68329;BME280;55182;56.864;60.554;2022-10-20T12:19:51;97704.00;;;2.76;85.00
68329;BME280;55182;56.864;60.554;2022-10-20T12:27:15;97702.13;;;2.69;84.64
68329;BME280;55182;56.864;60.554;2022-10-20T12:32:50;97699.38;;;2.62;85.05
68329;BME280;55182;56.864;60.554;2022-10-20T12:34:59;97705.41;;;2.61;85.64
68329;BME280;55182;56.864;60.554;2022-10-20T12:39:50;97711.38;;;2.60;85.67
68329;BME280;55182;56.864;60.554;2022-10-20T12:44:45;97707.16;;;2.62;85.46
68329;BME280;55182;56.864;60.554;2022-10-20T12:47:16;97708.78;;;2.60;85.31
68329;BME280;55182;56.864;60.554;2022-10-20T12:49:44;97707.06;;;2.59;85.75
68329;BME280;55182;56.864;60.554;2022-10-20T12:52:21;97714.78;;;2.58;85.90
68329;BME280;55182;56.864;60.554;2022-10-20T12:54:52;97707.00;;;2.56;85.55
68329;BME280;55182;56.864;60.554;2022-10-20T12:57:32;97712.16;;;2.56;85.95
68329;BME280;55182;56.864;60.554;2022-10-20T12:59:59;97719.00;;;2.54;86.10
68329;BME280;55182;56.864;60.554;2022-10-20T13:04:59;97712.06;;;2.53;85.67
68329;BME280;55182;56.864;60.554;2022-10-20T13:15:25;97718.53;;;2.36;86.73
68329;BME280;55182;56.864;60.554;2022-10-20T13:17:54;97721.06;;;2.34;86.32
68329;BME280;55182;56.864;60.554;2022-10-20T13:20:24;97728.84;;;2.34;86.13
68329;BME280;55182;56.864;60.554;2022-10-20T13:22:52;97729.59;;;2.32;86.63
68329;BME280;55182;56.864;60.554;2022-10-20T13:25:42;97722.53;;;2.25;86.82
68329;BME280;55182;56.864;60.554;2022-10-20T13:28:05;97729.09;;;2.12;87.17
68329;BME280;55182;56.864;60.554;2022-10-20T13:30:31;97734.63;;;1.94;88.32
68329;BME280;55182;56.864;60.554;2022-10-20T13:33:00;97742.94;;;1.84;89.34
68329;BME280;55182;56.864;60.554;2022-10-20T13:35:32;97742.75;;;1.78;89.97
68329;BME280;55182;56.864;60.554;2022-10-20T13:41:03;97731.72;;;1.83;89.68
68329;BME280;55182;56.864;60.554;2022-10-20T13:43:54;97733.50;;;1.86;89.88
68329;BME280;55182;56.864;60.554;2022-10-20T13:51:26;97745.75;;;1.92;90.01
68329;BME280;55182;56.864;60.554;2022-10-20T13:53:54;97742.28;;;1.91;90.54
68329;BME280;55182;56.864;60.554;2022-10-20T13:56:44;97744.69;;;1.85;90.73
68329;BME280;55182;56.864;60.554;2022-10-20T13:59:25;97745.31;;;1.76;91.60
68329;BME280;55182;56.864;60.554;2022-10-20T14:01:55;97748.69;;;1.75;91.96
68329;BME280;55182;56.864;60.554;2022-10-20T14:04:32;97738.44;;;1.77;92.00
68329;BME280;55182;56.864;60.554;2022-10-20T14:07:04;97753.09;;;1.78;91.81
68329;BME280;55182;56.864;60.554;2022-10-20T14:09:30;97749.56;;;1.76;91.64
68329;BME280;55182;56.864;60.554;2022-10-20T14:12:16;97753.81;;;1.72;91.98
68329;BME280;55182;56.864;60.554;2022-10-20T14:14:44;97757.22;;;1.71;92.11
68329;BME280;55182;56.864;60.554;2022-10-20T14:17:19;97751.19;;;1.71;91.84
68329;BME280;55182;56.864;60.554;2022-10-20T14:19:46;97761.41;;;1.68;92.25
68329;BME280;55182;56.864;60.554;2022-10-20T14:24:43;97759.56;;;1.64;92.48
68329;BME280;55182;56.864;60.554;2022-10-20T14:27:14;97772.25;;;1.56;93.38
68329;BME280;55182;56.864;60.554;2022-10-20T14:29:41;97766.09;;;1.52;94.30
68329;BME280;55182;56.864;60.554;2022-10-20T14:32:09;97762.72;;;1.53;94.28
68329;BME280;55182;56.864;60.554;2022-10-20T14:34:51;97766.97;;;1.53;94.23
68329;BME280;55182;56.864;60.554;2022-10-20T14:37:20;97768.78;;;1.55;94.89
68329;BME280;55182;56.864;60.554;2022-10-20T14:39:49;97772.25;;;1.56;94.49
68329;BME280;55182;56.864;60.554;2022-10-20T14:42:24;97773.09;;;1.55;95.09
68329;BME280;55182;56.864;60.554;2022-10-20T14:44:51;97785.13;;;1.54;94.53
68329;BME280;55182;56.864;60.554;2022-10-20T14:47:18;97790.31;;;1.54;95.06
68329;BME280;55182;56.864;60.554;2022-10-20T14:49:45;97782.47;;;1.53;94.87
68329;BME280;55182;56.864;60.554;2022-10-20T14:54:41;97792.81;;;1.53;95.33
68329;BME280;55182;56.864;60.554;2022-10-20T14:59:35;97789.13;;;1.18;99.85
68329;BME280;55182;56.864;60.554;2022-10-20T15:04:32;97776.16;;;0.89;100.00
68329;BME280;55182;56.864;60.554;2022-10-20T15:07:05;97787.31;;;0.88;100.00
68329;BME280;55182;56.864;60.554;2022-10-20T15:09:45;97791.75;;;0.92;100.00
68329;BME280;55182;56.864;60.554;2022-10-20T15:14:40;97785.03;;;0.97;100.00